sensor_id;sensor_type;location;lat;lon;timestamp;P1;durP1;ratioP1;P2;durP2;ratioP2
71969;SDS011;59838;52.152;5.436;2023-08-24T00:01:00;4.93;;;3.03;;
71969;SDS011;59838;52.152;5.436;2023-08-24T00:03:27;3.80;;;2.63;;
71969;SDS011;59838;52.152;5.436;2023-08-24T00:05:54;3.80;;;2.17;;
71969;SDS011;59838;52.152;5.436;2023-08-24T00:08:21;6.30;;;3.17;;
71969;SDS011;59838;52.152;5.436;2023-08-24T00:10:48;4.93;;;2.55;;
71969;SDS011;59838;52.152;5.436;2023-08-24T00:13:14;4.13;;;2.53;;
71969;SDS011;59838;52.152;5.436;2023-08-24T00:15:41;6.88;;;2.83;;
71969;SDS011;59838;52.152;5.436;2023-08-24T00:18:08;5.30;;;2.27;;
71969;SDS011;59838;52.152;5.436;2023-08-24T00:20:35;6.00;;;2.88;;
71969;SDS011;59838;52.152;5.436;2023-08-24T00:23:01;5.75;;;2.58;;
71969;SDS011;59838;52.152;5.436;2023-08-24T00:25:27;4.22;;;2.83;;
71969;SDS011;59838;52.152;5.436;2023-08-24T00:27:54;3.45;;;2.55;;
71969;SDS011;59838;52.152;5.436;2023-08-24T00:30:21;8.00;;;2.50;;
71969;SDS011;59838;52.152;5.436;2023-08-24T00:32:47;6.85;;;2.80;;
71969;SDS011;59838;52.152;5.436;2023-08-24T00:35:14;4.45;;;2.35;;
71969;SDS011;59838;52.152;5.436;2023-08-24T00:37:41;8.13;;;2.63;;
71969;SDS011;59838;52.152;5.436;2023-08-24T00:40:08;5.22;;;2.70;;
71969;SDS011;59838;52.152;5.436;2023-08-24T00:42:39;5.27;;;2.87;;
71969;SDS011;59838;52.152;5.436;2023-08-24T00:45:07;3.83;;;2.63;;
71969;SDS011;59838;52.152;5.436;2023-08-24T00:47:45;5.95;;;2.95;;
71969;SDS011;59838;52.152;5.436;2023-08-24T00:50:15;3.50;;;2.95;;
71969;SDS011;59838;52.152;5.436;2023-08-24T00:52:43;5.45;;;3.20;;
71969;SDS011;59838;52.152;5.436;2023-08-24T00:55:13;4.73;;;2.67;;
71969;SDS011;59838;52.152;5.436;2023-08-24T00:57:40;6.20;;;3.15;;
71969;SDS011;59838;52.152;5.436;2023-08-24T01:00:08;5.85;;;3.13;;
71969;SDS011;59838;52.152;5.436;2023-08-24T01:02:37;6.63;;;3.17;;
71969;SDS011;59838;52.152;5.436;2023-08-24T01:05:05;5.05;;;3.28;;
71969;SDS011;59838;52.152;5.436;2023-08-24T01:07:33;5.50;;;2.90;;
71969;SDS011;59838;52.152;5.436;2023-08-24T01:10:02;4.57;;;2.50;;
71969;SDS011;59838;52.152;5.436;2023-08-24T01:18:14;5.07;;;2.63;;
71969;SDS011;59838;52.152;5.436;2023-08-24T01:20:45;3.47;;;2.70;;
71969;SDS011;59838;52.152;5.436;2023-08-24T01:25:51;5.63;;;2.97;;
71969;SDS011;59838;52.152;5.436;2023-08-24T01:28:20;6.10;;;3.20;;
71969;SDS011;59838;52.152;5.436;2023-08-24T01:30:48;4.13;;;2.75;;
71969;SDS011;59838;52.152;5.436;2023-08-24T01:33:14;5.40;;;3.60;;
71969;SDS011;59838;52.152;5.436;2023-08-24T01:35:41;4.68;;;3.38;;
71969;SDS011;59838;52.152;5.436;2023-08-24T01:38:07;8.02;;;3.90;;
71969;SDS011;59838;52.152;5.436;2023-08-24T01:40:50;5.97;;;2.75;;
71969;SDS011;59838;52.152;5.436;2023-08-24T01:43:23;6.05;;;3.30;;
71969;SDS011;59838;52.152;5.436;2023-08-24T01:46:08;7.90;;;3.63;;
71969;SDS011;59838;52.152;5.436;2023-08-24T01:48:37;4.97;;;3.35;;
71969;SDS011;59838;52.152;5.436;2023-08-24T01:51:05;5.20;;;3.67;;
71969;SDS011;59838;52.152;5.436;2023-08-24T01:53:32;6.72;;;3.03;;
71969;SDS011;59838;52.152;5.436;2023-08-24T01:55:59;3.40;;;3.03;;
71969;SDS011;59838;52.152;5.436;2023-08-24T01:58:26;4.73;;;3.27;;
71969;SDS011;59838;52.152;5.436;2023-08-24T02:00:52;4.80;;;3.22;;
71969;SDS011;59838;52.152;5.436;2023-08-24T02:03:19;5.50;;;3.78;;
71969;SDS011;59838;52.152;5.436;2023-08-24T02:05:45;4.00;;;3.10;;
71969;SDS011;59838;52.152;5.436;2023-08-24T02:08:12;4.55;;;3.13;;
71969;SDS011;59838;52.152;5.436;2023-08-24T02:10:38;5.07;;;2.70;;
71969;SDS011;59838;52.152;5.436;2023-08-24T02:13:04;4.43;;;3.35;;
71969;SDS011;59838;52.152;5.436;2023-08-24T02:15:31;6.65;;;3.47;;
71969;SDS011;59838;52.152;5.436;2023-08-24T02:17:57;4.68;;;3.53;;
71969;SDS011;59838;52.152;5.436;2023-08-24T02:20:24;8.38;;;3.13;;
71969;SDS011;59838;52.152;5.436;2023-08-24T02:22:51;7.67;;;2.60;;
71969;SDS011;59838;52.152;5.436;2023-08-24T02:25:17;5.22;;;3.30;;
71969;SDS011;59838;52.152;5.436;2023-08-24T02:27:44;6.53;;;3.40;;
71969;SDS011;59838;52.152;5.436;2023-08-24T02:30:11;10.35;;;3.25;;
71969;SDS011;59838;52.152;5.436;2023-08-24T02:32:38;5.72;;;3.00;;
71969;SDS011;59838;52.152;5.436;2023-08-24T02:35:04;5.93;;;3.30;;
71969;SDS011;59838;52.152;5.436;2023-08-24T02:37:31;9.25;;;3.83;;
71969;SDS011;59838;52.152;5.436;2023-08-24T02:39:58;5.88;;;3.83;;
71969;SDS011;59838;52.152;5.436;2023-08-24T02:42:24;17.77;;;4.30;;
71969;SDS011;59838;52.152;5.436;2023-08-24T02:44:51;8.05;;;4.45;;
71969;SDS011;59838;52.152;5.436;2023-08-24T02:47:17;8.27;;;3.97;;
71969;SDS011;59838;52.152;5.436;2023-08-24T02:49:44;5.10;;;4.05;;
71969;SDS011;59838;52.152;5.436;2023-08-24T02:52:10;7.38;;;4.03;;
71969;SDS011;59838;52.152;5.436;2023-08-24T02:54:37;4.95;;;3.97;;
71969;SDS011;59838;52.152;5.436;2023-08-24T02:57:03;8.27;;;4.20;;
71969;SDS011;59838;52.152;5.436;2023-08-24T02:59:30;9.07;;;4.13;;
71969;SDS011;59838;52.152;5.436;2023-08-24T03:01:56;6.85;;;4.38;;
71969;SDS011;59838;52.152;5.436;2023-08-24T03:04:23;6.57;;;4.40;;
71969;SDS011;59838;52.152;5.436;2023-08-24T03:06:50;12.90;;;4.50;;
71969;SDS011;59838;52.152;5.436;2023-08-24T03:09:17;5.82;;;4.28;;
71969;SDS011;59838;52.152;5.436;2023-08-24T03:11:44;6.90;;;4.47;;
71969;SDS011;59838;52.152;5.436;2023-08-24T03:14:10;8.48;;;4.70;;
71969;SDS011;59838;52.152;5.436;2023-08-24T03:16:37;9.27;;;4.15;;
71969;SDS011;59838;52.152;5.436;2023-08-24T03:19:07;6.00;;;3.90;;
71969;SDS011;59838;52.152;5.436;2023-08-24T03:21:34;8.60;;;3.97;;
71969;SDS011;59838;52.152;5.436;2023-08-24T03:24:00;6.70;;;3.57;;
71969;SDS011;59838;52.152;5.436;2023-08-24T03:26:27;7.82;;;4.00;;
71969;SDS011;59838;52.152;5.436;2023-08-24T03:28:53;6.55;;;3.55;;
71969;SDS011;59838;52.152;5.436;2023-08-24T03:31:20;5.32;;;3.92;;
71969;SDS011;59838;52.152;5.436;2023-08-24T03:33:46;7.95;;;3.95;;
71969;SDS011;59838;52.152;5.436;2023-08-24T03:36:13;5.87;;;3.80;;
71969;SDS011;59838;52.152;5.436;2023-08-24T03:38:39;9.68;;;4.18;;
71969;SDS011;59838;52.152;5.436;2023-08-24T03:41:06;10.63;;;5.38;;
71969;SDS011;59838;52.152;5.436;2023-08-24T03:43:33;9.65;;;4.18;;
71969;SDS011;59838;52.152;5.436;2023-08-24T03:46:01;6.00;;;4.47;;
71969;SDS011;59838;52.152;5.436;2023-08-24T03:48:28;6.63;;;4.67;;
71969;SDS011;59838;52.152;5.436;2023-08-24T03:50:55;6.97;;;4.50;;
71969;SDS011;59838;52.152;5.436;2023-08-24T03:53:22;8.80;;;4.72;;
71969;SDS011;59838;52.152;5.436;2023-08-24T03:55:49;6.95;;;4.30;;
71969;SDS011;59838;52.152;5.436;2023-08-24T03:58:16;7.75;;;4.75;;
71969;SDS011;59838;52.152;5.436;2023-08-24T04:00:44;6.33;;;4.73;;
71969;SDS011;59838;52.152;5.436;2023-08-24T04:03:11;9.07;;;4.78;;
71969;SDS011;59838;52.152;5.436;2023-08-24T04:05:38;12.25;;;4.80;;
71969;SDS011;59838;52.152;5.436;2023-08-24T04:08:05;7.95;;;4.78;;
71969;SDS011;59838;52.152;5.436;2023-08-24T04:10:31;7.47;;;5.35;;
71969;SDS011;59838;52.152;5.436;2023-08-24T04:12:58;11.70;;;5.20;;
71969;SDS011;59838;52.152;5.436;2023-08-24T04:15:24;7.97;;;4.75;;
71969;SDS011;59838;52.152;5.436;2023-08-24T04:17:51;8.10;;;5.43;;
71969;SDS011;59838;52.152;5.436;2023-08-24T04:20:18;9.18;;;5.50;;
71969;SDS011;59838;52.152;5.436;2023-08-24T04:22:44;9.73;;;5.40;;
71969;SDS011;59838;52.152;5.436;2023-08-24T04:25:11;8.23;;;4.80;;
71969;SDS011;59838;52.152;5.436;2023-08-24T04:27:37;9.25;;;4.65;;
71969;SDS011;59838;52.152;5.436;2023-08-24T04:30:04;6.38;;;4.50;;
71969;SDS011;59838;52.152;5.436;2023-08-24T04:32:31;8.73;;;5.00;;
71969;SDS011;59838;52.152;5.436;2023-08-24T04:34:58;9.05;;;5.75;;
71969;SDS011;59838;52.152;5.436;2023-08-24T04:37:24;7.50;;;5.03;;
71969;SDS011;59838;52.152;5.436;2023-08-24T04:39:51;9.55;;;5.05;;
71969;SDS011;59838;52.152;5.436;2023-08-24T04:42:17;14.27;;;5.18;;
71969;SDS011;59838;52.152;5.436;2023-08-24T04:44:44;7.47;;;4.78;;
71969;SDS011;59838;52.152;5.436;2023-08-24T04:47:10;10.95;;;5.07;;
71969;SDS011;59838;52.152;5.436;2023-08-24T04:49:37;7.17;;;4.73;;
71969;SDS011;59838;52.152;5.436;2023-08-24T04:52:03;5.60;;;4.43;;
71969;SDS011;59838;52.152;5.436;2023-08-24T04:54:31;8.45;;;5.00;;
71969;SDS011;59838;52.152;5.436;2023-08-24T04:56:58;9.20;;;4.88;;
71969;SDS011;59838;52.152;5.436;2023-08-24T04:59:25;8.90;;;5.20;;
71969;SDS011;59838;52.152;5.436;2023-08-24T05:01:51;11.13;;;5.23;;
71969;SDS011;59838;52.152;5.436;2023-08-24T05:04:18;9.10;;;5.28;;
71969;SDS011;59838;52.152;5.436;2023-08-24T05:06:44;6.90;;;4.80;;
71969;SDS011;59838;52.152;5.436;2023-08-24T05:09:11;7.80;;;4.88;;
71969;SDS011;59838;52.152;5.436;2023-08-24T05:11:37;6.05;;;4.25;;
71969;SDS011;59838;52.152;5.436;2023-08-24T05:14:03;11.30;;;4.77;;
71969;SDS011;59838;52.152;5.436;2023-08-24T05:16:30;6.13;;;4.93;;
71969;SDS011;59838;52.152;5.436;2023-08-24T05:18:57;7.25;;;4.43;;
71969;SDS011;59838;52.152;5.436;2023-08-24T05:21:23;7.25;;;4.63;;
71969;SDS011;59838;52.152;5.436;2023-08-24T05:23:50;6.07;;;4.32;;
71969;SDS011;59838;52.152;5.436;2023-08-24T05:26:16;6.50;;;4.33;;
71969;SDS011;59838;52.152;5.436;2023-08-24T05:28:48;7.32;;;4.55;;
71969;SDS011;59838;52.152;5.436;2023-08-24T05:31:15;6.70;;;4.88;;
71969;SDS011;59838;52.152;5.436;2023-08-24T05:33:45;6.25;;;4.20;;
71969;SDS011;59838;52.152;5.436;2023-08-24T05:36:11;7.00;;;4.95;;
71969;SDS011;59838;52.152;5.436;2023-08-24T05:38:38;7.57;;;4.57;;
71969;SDS011;59838;52.152;5.436;2023-08-24T05:41:16;9.55;;;4.13;;
71969;SDS011;59838;52.152;5.436;2023-08-24T05:43:43;6.78;;;4.50;;
71969;SDS011;59838;52.152;5.436;2023-08-24T05:46:09;6.70;;;4.00;;
71969;SDS011;59838;52.152;5.436;2023-08-24T05:48:36;4.60;;;3.95;;
71969;SDS011;59838;52.152;5.436;2023-08-24T05:51:02;8.20;;;4.00;;
71969;SDS011;59838;52.152;5.436;2023-08-24T05:53:29;9.75;;;4.63;;
71969;SDS011;59838;52.152;5.436;2023-08-24T05:55:58;11.55;;;4.75;;
71969;SDS011;59838;52.152;5.436;2023-08-24T05:58:25;15.73;;;4.50;;
71969;SDS011;59838;52.152;5.436;2023-08-24T06:00:58;10.25;;;5.55;;
71969;SDS011;59838;52.152;5.436;2023-08-24T06:03:25;9.20;;;4.47;;
71969;SDS011;59838;52.152;5.436;2023-08-24T06:05:52;10.05;;;4.68;;
71969;SDS011;59838;52.152;5.436;2023-08-24T06:08:18;8.32;;;3.90;;
71969;SDS011;59838;52.152;5.436;2023-08-24T06:10:45;7.63;;;4.07;;
71969;SDS011;59838;52.152;5.436;2023-08-24T06:13:12;9.98;;;3.80;;
71969;SDS011;59838;52.152;5.436;2023-08-24T06:15:38;9.37;;;4.37;;
71969;SDS011;59838;52.152;5.436;2023-08-24T06:18:04;8.35;;;4.60;;
71969;SDS011;59838;52.152;5.436;2023-08-24T06:20:31;8.07;;;4.55;;
71969;SDS011;59838;52.152;5.436;2023-08-24T06:22:58;10.18;;;3.90;;
71969;SDS011;59838;52.152;5.436;2023-08-24T06:25:25;7.85;;;4.50;;
71969;SDS011;59838;52.152;5.436;2023-08-24T06:27:51;9.13;;;4.73;;
71969;SDS011;59838;52.152;5.436;2023-08-24T06:30:18;14.30;;;4.65;;
71969;SDS011;59838;52.152;5.436;2023-08-24T06:32:45;11.27;;;4.35;;
71969;SDS011;59838;52.152;5.436;2023-08-24T06:35:12;8.10;;;4.68;;
71969;SDS011;59838;52.152;5.436;2023-08-24T06:37:41;8.65;;;5.07;;
71969;SDS011;59838;52.152;5.436;2023-08-24T06:40:09;10.93;;;5.10;;
71969;SDS011;59838;52.152;5.436;2023-08-24T06:42:36;12.60;;;5.03;;
71969;SDS011;59838;52.152;5.436;2023-08-24T06:45:03;7.35;;;5.38;;
71969;SDS011;59838;52.152;5.436;2023-08-24T06:47:30;9.80;;;4.82;;
71969;SDS011;59838;52.152;5.436;2023-08-24T06:49:56;6.78;;;5.63;;
71969;SDS011;59838;52.152;5.436;2023-08-24T06:52:23;13.37;;;4.60;;
71969;SDS011;59838;52.152;5.436;2023-08-24T06:54:50;11.65;;;5.95;;
71969;SDS011;59838;52.152;5.436;2023-08-24T06:57:19;10.15;;;5.68;;
71969;SDS011;59838;52.152;5.436;2023-08-24T06:59:46;8.15;;;5.20;;
71969;SDS011;59838;52.152;5.436;2023-08-24T07:02:12;12.93;;;5.55;;
71969;SDS011;59838;52.152;5.436;2023-08-24T07:04:39;12.20;;;6.47;;
71969;SDS011;59838;52.152;5.436;2023-08-24T07:07:06;16.65;;;7.05;;
71969;SDS011;59838;52.152;5.436;2023-08-24T07:09:33;10.32;;;6.20;;
71969;SDS011;59838;52.152;5.436;2023-08-24T07:12:00;14.32;;;6.00;;
71969;SDS011;59838;52.152;5.436;2023-08-24T07:14:26;7.20;;;6.25;;
71969;SDS011;59838;52.152;5.436;2023-08-24T07:16:53;10.80;;;6.23;;
71969;SDS011;59838;52.152;5.436;2023-08-24T07:19:19;14.18;;;6.55;;
71969;SDS011;59838;52.152;5.436;2023-08-24T07:21:46;9.95;;;6.30;;
71969;SDS011;59838;52.152;5.436;2023-08-24T07:24:13;13.13;;;6.65;;
71969;SDS011;59838;52.152;5.436;2023-08-24T07:26:40;15.00;;;7.10;;
71969;SDS011;59838;52.152;5.436;2023-08-24T07:29:08;12.70;;;6.50;;
71969;SDS011;59838;52.152;5.436;2023-08-24T07:31:34;9.82;;;6.55;;
71969;SDS011;59838;52.152;5.436;2023-08-24T07:34:04;8.98;;;6.93;;
71969;SDS011;59838;52.152;5.436;2023-08-24T07:36:31;15.93;;;7.40;;
71969;SDS011;59838;52.152;5.436;2023-08-24T07:38:57;10.80;;;7.18;;
71969;SDS011;59838;52.152;5.436;2023-08-24T07:41:24;11.10;;;7.00;;
71969;SDS011;59838;52.152;5.436;2023-08-24T07:43:50;14.30;;;7.28;;
71969;SDS011;59838;52.152;5.436;2023-08-24T07:46:17;15.70;;;8.10;;
71969;SDS011;59838;52.152;5.436;2023-08-24T07:48:43;22.55;;;8.07;;
71969;SDS011;59838;52.152;5.436;2023-08-24T07:51:10;18.35;;;7.57;;
71969;SDS011;59838;52.152;5.436;2023-08-24T07:53:36;12.50;;;6.87;;
71969;SDS011;59838;52.152;5.436;2023-08-24T07:56:02;13.68;;;6.82;;
71969;SDS011;59838;52.152;5.436;2023-08-24T07:58:29;10.10;;;7.35;;
71969;SDS011;59838;52.152;5.436;2023-08-24T08:00:58;17.25;;;7.38;;
71969;SDS011;59838;52.152;5.436;2023-08-24T08:03:25;11.07;;;7.28;;
71969;SDS011;59838;52.152;5.436;2023-08-24T08:05:52;8.37;;;6.97;;
71969;SDS011;59838;52.152;5.436;2023-08-24T08:08:18;12.32;;;7.55;;
71969;SDS011;59838;52.152;5.436;2023-08-24T08:10:45;13.05;;;7.43;;
71969;SDS011;59838;52.152;5.436;2023-08-24T08:13:11;11.38;;;6.65;;
71969;SDS011;59838;52.152;5.436;2023-08-24T08:15:38;8.77;;;7.00;;
71969;SDS011;59838;52.152;5.436;2023-08-24T08:18:05;18.63;;;7.50;;
71969;SDS011;59838;52.152;5.436;2023-08-24T08:20:32;10.25;;;6.93;;
71969;SDS011;59838;52.152;5.436;2023-08-24T08:22:58;12.23;;;8.15;;
71969;SDS011;59838;52.152;5.436;2023-08-24T08:25:25;14.80;;;7.88;;
71969;SDS011;59838;52.152;5.436;2023-08-24T08:27:52;10.15;;;6.93;;
71969;SDS011;59838;52.152;5.436;2023-08-24T08:30:19;9.47;;;7.57;;
71969;SDS011;59838;52.152;5.436;2023-08-24T08:32:46;15.75;;;7.63;;
71969;SDS011;59838;52.152;5.436;2023-08-24T08:35:13;11.57;;;7.93;;
71969;SDS011;59838;52.152;5.436;2023-08-24T08:37:39;10.93;;;7.47;;
71969;SDS011;59838;52.152;5.436;2023-08-24T08:40:08;11.25;;;8.73;;
71969;SDS011;59838;52.152;5.436;2023-08-24T08:42:36;9.33;;;7.27;;
71969;SDS011;59838;52.152;5.436;2023-08-24T08:45:04;10.93;;;7.88;;
71969;SDS011;59838;52.152;5.436;2023-08-24T08:47:34;13.43;;;7.45;;
71969;SDS011;59838;52.152;5.436;2023-08-24T08:50:02;10.63;;;7.13;;
71969;SDS011;59838;52.152;5.436;2023-08-24T08:52:30;10.65;;;7.65;;
71969;SDS011;59838;52.152;5.436;2023-08-24T08:54:57;10.00;;;6.60;;
71969;SDS011;59838;52.152;5.436;2023-08-24T08:57:24;10.90;;;7.15;;
71969;SDS011;59838;52.152;5.436;2023-08-24T08:59:52;9.35;;;7.57;;
71969;SDS011;59838;52.152;5.436;2023-08-24T09:02:19;14.95;;;7.15;;
71969;SDS011;59838;52.152;5.436;2023-08-24T09:04:47;8.65;;;7.28;;
71969;SDS011;59838;52.152;5.436;2023-08-24T09:07:17;10.17;;;7.93;;
71969;SDS011;59838;52.152;5.436;2023-08-24T09:09:43;14.20;;;7.90;;
71969;SDS011;59838;52.152;5.436;2023-08-24T09:12:10;14.95;;;8.45;;
71969;SDS011;59838;52.152;5.436;2023-08-24T09:14:36;12.32;;;7.82;;
71969;SDS011;59838;52.152;5.436;2023-08-24T09:17:03;16.15;;;8.48;;
71969;SDS011;59838;52.152;5.436;2023-08-24T09:19:30;13.93;;;8.37;;
71969;SDS011;59838;52.152;5.436;2023-08-24T09:21:57;12.27;;;8.23;;
71969;SDS011;59838;52.152;5.436;2023-08-24T09:24:31;10.18;;;8.10;;
71969;SDS011;59838;52.152;5.436;2023-08-24T09:26:59;21.63;;;8.63;;
71969;SDS011;59838;52.152;5.436;2023-08-24T09:29:27;22.52;;;8.95;;
71969;SDS011;59838;52.152;5.436;2023-08-24T09:31:54;9.37;;;6.60;;
71969;SDS011;59838;52.152;5.436;2023-08-24T09:34:22;10.18;;;7.47;;
71969;SDS011;59838;52.152;5.436;2023-08-24T09:36:52;10.75;;;6.63;;
71969;SDS011;59838;52.152;5.436;2023-08-24T09:39:19;7.97;;;6.22;;
71969;SDS011;59838;52.152;5.436;2023-08-24T09:41:48;7.53;;;6.82;;
71969;SDS011;59838;52.152;5.436;2023-08-24T09:44:17;9.80;;;7.17;;
71969;SDS011;59838;52.152;5.436;2023-08-24T09:46:44;19.95;;;7.70;;
71969;SDS011;59838;52.152;5.436;2023-08-24T09:49:11;15.95;;;8.15;;
71969;SDS011;59838;52.152;5.436;2023-08-24T09:51:39;13.38;;;7.50;;
71969;SDS011;59838;52.152;5.436;2023-08-24T09:54:09;14.05;;;7.28;;
71969;SDS011;59838;52.152;5.436;2023-08-24T09:56:37;13.17;;;6.93;;
71969;SDS011;59838;52.152;5.436;2023-08-24T09:59:13;8.98;;;6.20;;
71969;SDS011;59838;52.152;5.436;2023-08-24T10:01:45;10.80;;;6.82;;
71969;SDS011;59838;52.152;5.436;2023-08-24T10:04:14;8.57;;;6.18;;
71969;SDS011;59838;52.152;5.436;2023-08-24T10:06:44;8.68;;;6.65;;
71969;SDS011;59838;52.152;5.436;2023-08-24T10:09:14;11.23;;;6.07;;
71969;SDS011;59838;52.152;5.436;2023-08-24T10:11:53;8.80;;;6.13;;
71969;SDS011;59838;52.152;5.436;2023-08-24T10:17:15;9.68;;;6.65;;
71969;SDS011;59838;52.152;5.436;2023-08-24T10:19:42;9.10;;;6.65;;
71969;SDS011;59838;52.152;5.436;2023-08-24T10:22:09;11.83;;;6.60;;
71969;SDS011;59838;52.152;5.436;2023-08-24T10:24:37;10.88;;;7.03;;
71969;SDS011;59838;52.152;5.436;2023-08-24T10:27:05;7.40;;;6.57;;
71969;SDS011;59838;52.152;5.436;2023-08-24T10:29:35;9.75;;;6.75;;
71969;SDS011;59838;52.152;5.436;2023-08-24T10:32:01;8.02;;;7.22;;
71969;SDS011;59838;52.152;5.436;2023-08-24T10:34:30;9.47;;;6.47;;
71969;SDS011;59838;52.152;5.436;2023-08-24T10:36:57;13.20;;;7.00;;
71969;SDS011;59838;52.152;5.436;2023-08-24T10:39:27;9.43;;;6.88;;
71969;SDS011;59838;52.152;5.436;2023-08-24T10:41:54;11.27;;;6.60;;
71969;SDS011;59838;52.152;5.436;2023-08-24T10:44:25;10.48;;;7.72;;
71969;SDS011;59838;52.152;5.436;2023-08-24T10:47:13;8.13;;;6.67;;
71969;SDS011;59838;52.152;5.436;2023-08-24T10:49:42;11.80;;;6.40;;
71969;SDS011;59838;52.152;5.436;2023-08-24T10:55:21;7.63;;;6.82;;
71969;SDS011;59838;52.152;5.436;2023-08-24T10:57:58;10.25;;;7.65;;
71969;SDS011;59838;52.152;5.436;2023-08-24T11:00:27;10.13;;;7.20;;
71969;SDS011;59838;52.152;5.436;2023-08-24T11:02:54;12.57;;;7.15;;
71969;SDS011;59838;52.152;5.436;2023-08-24T11:05:27;15.50;;;7.53;;
71969;SDS011;59838;52.152;5.436;2023-08-24T11:07:57;11.52;;;8.00;;
71969;SDS011;59838;52.152;5.436;2023-08-24T11:13:14;10.97;;;7.57;;
71969;SDS011;59838;52.152;5.436;2023-08-24T11:15:47;13.25;;;7.68;;
71969;SDS011;59838;52.152;5.436;2023-08-24T11:18:27;10.18;;;7.88;;
71969;SDS011;59838;52.152;5.436;2023-08-24T11:21:05;10.15;;;7.85;;
71969;SDS011;59838;52.152;5.436;2023-08-24T11:23:32;18.63;;;9.95;;
71969;SDS011;59838;52.152;5.436;2023-08-24T11:26:00;10.53;;;8.93;;
71969;SDS011;59838;52.152;5.436;2023-08-24T11:28:27;12.93;;;8.77;;
71969;SDS011;59838;52.152;5.436;2023-08-24T11:30:55;12.88;;;8.98;;
71969;SDS011;59838;52.152;5.436;2023-08-24T11:33:33;14.45;;;9.57;;
71969;SDS011;59838;52.152;5.436;2023-08-24T11:36:02;14.50;;;9.60;;
71969;SDS011;59838;52.152;5.436;2023-08-24T11:38:39;14.47;;;9.27;;
71969;SDS011;59838;52.152;5.436;2023-08-24T11:41:11;13.23;;;10.15;;
71969;SDS011;59838;52.152;5.436;2023-08-24T11:43:39;13.95;;;9.93;;
71969;SDS011;59838;52.152;5.436;2023-08-24T11:46:06;10.77;;;9.48;;
71969;SDS011;59838;52.152;5.436;2023-08-24T11:48:32;12.55;;;8.75;;
71969;SDS011;59838;52.152;5.436;2023-08-24T11:50:59;18.13;;;9.40;;
71969;SDS011;59838;52.152;5.436;2023-08-24T11:53:26;16.13;;;9.43;;
71969;SDS011;59838;52.152;5.436;2023-08-24T11:55:52;13.00;;;8.40;;
71969;SDS011;59838;52.152;5.436;2023-08-24T11:58:31;15.13;;;9.27;;
71969;SDS011;59838;52.152;5.436;2023-08-24T12:00:58;11.63;;;8.48;;
71969;SDS011;59838;52.152;5.436;2023-08-24T12:03:24;16.80;;;10.03;;
71969;SDS011;59838;52.152;5.436;2023-08-24T12:05:51;15.68;;;9.10;;
71969;SDS011;59838;52.152;5.436;2023-08-24T12:08:17;15.77;;;8.93;;
71969;SDS011;59838;52.152;5.436;2023-08-24T12:10:44;12.65;;;9.45;;
71969;SDS011;59838;52.152;5.436;2023-08-24T12:13:11;11.98;;;9.63;;
71969;SDS011;59838;52.152;5.436;2023-08-24T12:15:40;13.97;;;10.80;;
71969;SDS011;59838;52.152;5.436;2023-08-24T12:18:08;13.65;;;10.00;;
71969;SDS011;59838;52.152;5.436;2023-08-24T12:20:35;10.68;;;9.57;;
71969;SDS011;59838;52.152;5.436;2023-08-24T12:23:02;12.05;;;9.70;;
71969;SDS011;59838;52.152;5.436;2023-08-24T12:25:29;15.15;;;9.23;;
71969;SDS011;59838;52.152;5.436;2023-08-24T12:28:15;15.33;;;9.23;;
71969;SDS011;59838;52.152;5.436;2023-08-24T12:30:43;13.48;;;8.98;;
71969;SDS011;59838;52.152;5.436;2023-08-24T12:33:20;25.05;;;11.40;;
71969;SDS011;59838;52.152;5.436;2023-08-24T12:35:51;19.38;;;10.88;;
71969;SDS011;59838;52.152;5.436;2023-08-24T12:38:19;16.48;;;10.77;;
71969;SDS011;59838;52.152;5.436;2023-08-24T12:40:46;15.37;;;9.90;;
71969;SDS011;59838;52.152;5.436;2023-08-24T12:43:12;13.18;;;9.27;;
71969;SDS011;59838;52.152;5.436;2023-08-24T12:45:39;14.98;;;10.88;;
71969;SDS011;59838;52.152;5.436;2023-08-24T12:48:07;16.80;;;11.02;;
71969;SDS011;59838;52.152;5.436;2023-08-24T12:50:34;22.60;;;12.13;;
71969;SDS011;59838;52.152;5.436;2023-08-24T12:53:01;21.53;;;11.07;;
71969;SDS011;59838;52.152;5.436;2023-08-24T12:55:29;13.70;;;11.25;;
71969;SDS011;59838;52.152;5.436;2023-08-24T12:57:55;20.50;;;10.73;;
71969;SDS011;59838;52.152;5.436;2023-08-24T13:00:22;18.83;;;10.55;;
71969;SDS011;59838;52.152;5.436;2023-08-24T13:02:49;17.85;;;10.82;;
71969;SDS011;59838;52.152;5.436;2023-08-24T13:05:16;14.97;;;9.80;;
71969;SDS011;59838;52.152;5.436;2023-08-24T13:07:43;15.20;;;9.88;;
71969;SDS011;59838;52.152;5.436;2023-08-24T13:10:10;11.77;;;8.82;;
71969;SDS011;59838;52.152;5.436;2023-08-24T13:12:37;14.23;;;9.05;;
71969;SDS011;59838;52.152;5.436;2023-08-24T13:15:04;17.20;;;10.25;;
71969;SDS011;59838;52.152;5.436;2023-08-24T13:17:31;15.57;;;9.60;;
71969;SDS011;59838;52.152;5.436;2023-08-24T13:19:58;16.00;;;9.32;;
71969;SDS011;59838;52.152;5.436;2023-08-24T13:22:25;14.90;;;9.90;;
71969;SDS011;59838;52.152;5.436;2023-08-24T13:24:51;12.63;;;8.13;;
71969;SDS011;59838;52.152;5.436;2023-08-24T13:27:18;13.77;;;8.07;;
71969;SDS011;59838;52.152;5.436;2023-08-24T13:29:45;14.50;;;8.23;;
71969;SDS011;59838;52.152;5.436;2023-08-24T13:32:11;14.43;;;9.10;;
71969;SDS011;59838;52.152;5.436;2023-08-24T13:34:38;12.45;;;9.45;;
71969;SDS011;59838;52.152;5.436;2023-08-24T13:37:05;12.75;;;9.20;;
71969;SDS011;59838;52.152;5.436;2023-08-24T13:39:31;11.40;;;9.00;;
71969;SDS011;59838;52.152;5.436;2023-08-24T13:41:59;10.07;;;8.37;;
71969;SDS011;59838;52.152;5.436;2023-08-24T13:44:25;13.73;;;10.88;;
71969;SDS011;59838;52.152;5.436;2023-08-24T13:46:52;12.68;;;9.00;;
71969;SDS011;59838;52.152;5.436;2023-08-24T13:49:19;16.40;;;9.80;;
71969;SDS011;59838;52.152;5.436;2023-08-24T13:52:04;17.35;;;9.88;;
71969;SDS011;59838;52.152;5.436;2023-08-24T13:54:31;16.73;;;9.63;;
71969;SDS011;59838;52.152;5.436;2023-08-24T13:56:58;13.50;;;10.02;;
71969;SDS011;59838;52.152;5.436;2023-08-24T13:59:26;13.52;;;10.77;;
71969;SDS011;59838;52.152;5.436;2023-08-24T14:01:53;13.05;;;9.95;;
71969;SDS011;59838;52.152;5.436;2023-08-24T14:04:20;15.15;;;10.30;;
71969;SDS011;59838;52.152;5.436;2023-08-24T14:06:46;13.60;;;10.00;;
71969;SDS011;59838;52.152;5.436;2023-08-24T14:09:14;12.65;;;9.82;;
71969;SDS011;59838;52.152;5.436;2023-08-24T14:11:41;11.60;;;10.32;;
71969;SDS011;59838;52.152;5.436;2023-08-24T14:14:07;14.32;;;10.68;;
71969;SDS011;59838;52.152;5.436;2023-08-24T14:16:34;15.35;;;11.27;;
71969;SDS011;59838;52.152;5.436;2023-08-24T14:19:00;12.13;;;10.83;;
71969;SDS011;59838;52.152;5.436;2023-08-24T14:21:30;13.27;;;10.55;;
71969;SDS011;59838;52.152;5.436;2023-08-24T14:24:10;15.57;;;11.52;;
71969;SDS011;59838;52.152;5.436;2023-08-24T14:26:37;17.85;;;12.50;;
71969;SDS011;59838;52.152;5.436;2023-08-24T14:29:05;16.40;;;12.52;;
71969;SDS011;59838;52.152;5.436;2023-08-24T14:31:32;17.07;;;12.37;;
71969;SDS011;59838;52.152;5.436;2023-08-24T14:33:58;13.77;;;12.30;;
71969;SDS011;59838;52.152;5.436;2023-08-24T14:36:25;14.57;;;12.90;;
71969;SDS011;59838;52.152;5.436;2023-08-24T14:38:51;17.85;;;14.02;;
71969;SDS011;59838;52.152;5.436;2023-08-24T14:41:20;20.17;;;14.15;;
71969;SDS011;59838;52.152;5.436;2023-08-24T14:43:47;14.70;;;13.20;;
71969;SDS011;59838;52.152;5.436;2023-08-24T14:46:14;19.23;;;14.50;;
71969;SDS011;59838;52.152;5.436;2023-08-24T14:48:41;17.40;;;14.20;;
71969;SDS011;59838;52.152;5.436;2023-08-24T14:51:08;17.45;;;12.82;;
71969;SDS011;59838;52.152;5.436;2023-08-24T14:53:34;16.00;;;13.13;;
71969;SDS011;59838;52.152;5.436;2023-08-24T14:56:01;15.43;;;12.97;;
71969;SDS011;59838;52.152;5.436;2023-08-24T14:58:28;16.92;;;11.63;;